sensor_id;sensor_type;location;lat;lon;timestamp;P1;durP1;ratioP1;P2;durP2;ratioP2
6300;SDS011;3183;51.010;6.898;2023-03-16T00:01:01;9.30;;;4.63;;
6300;SDS011;3183;51.010;6.898;2023-03-16T00:03:29;10.73;;;3.70;;
6300;SDS011;3183;51.010;6.898;2023-03-16T00:05:57;11.40;;;4.37;;
6300;SDS011;3183;51.010;6.898;2023-03-16T00:08:24;7.17;;;3.77;;
6300;SDS011;3183;51.010;6.898;2023-03-16T00:10:52;7.70;;;4.30;;
6300;SDS011;3183;51.010;6.898;2023-03-16T00:13:20;10.53;;;4.03;;
6300;SDS011;3183;51.010;6.898;2023-03-16T00:15:51;12.40;;;3.90;;
6300;SDS011;3183;51.010;6.898;2023-03-16T00:18:18;8.13;;;3.53;;
6300;SDS011;3183;51.010;6.898;2023-03-16T00:20:48;10.67;;;4.10;;
6300;SDS011;3183;51.010;6.898;2023-03-16T00:23:17;9.77;;;4.47;;
6300;SDS011;3183;51.010;6.898;2023-03-16T00:25:51;17.83;;;4.33;;
6300;SDS011;3183;51.010;6.898;2023-03-16T00:28:19;7.57;;;4.20;;
6300;SDS011;3183;51.010;6.898;2023-03-16T00:30:46;10.50;;;4.20;;
6300;SDS011;3183;51.010;6.898;2023-03-16T00:33:13;8.17;;;3.93;;
6300;SDS011;3183;51.010;6.898;2023-03-16T00:35:40;9.70;;;4.70;;
6300;SDS011;3183;51.010;6.898;2023-03-16T00:38:13;8.23;;;4.03;;
6300;SDS011;3183;51.010;6.898;2023-03-16T00:40:42;8.07;;;3.90;;
6300;SDS011;3183;51.010;6.898;2023-03-16T00:43:09;7.67;;;4.33;;
6300;SDS011;3183;51.010;6.898;2023-03-16T00:45:36;10.90;;;4.50;;
6300;SDS011;3183;51.010;6.898;2023-03-16T00:48:03;8.77;;;4.13;;
6300;SDS011;3183;51.010;6.898;2023-03-16T00:50:30;11.90;;;4.70;;
6300;SDS011;3183;51.010;6.898;2023-03-16T00:52:57;6.70;;;3.70;;
6300;SDS011;3183;51.010;6.898;2023-03-16T00:55:25;11.50;;;4.37;;
6300;SDS011;3183;51.010;6.898;2023-03-16T00:57:53;13.33;;;4.07;;
6300;SDS011;3183;51.010;6.898;2023-03-16T01:00:21;7.93;;;4.33;;
6300;SDS011;3183;51.010;6.898;2023-03-16T01:02:52;6.20;;;3.73;;
6300;SDS011;3183;51.010;6.898;2023-03-16T01:05:19;8.50;;;4.00;;
6300;SDS011;3183;51.010;6.898;2023-03-16T01:07:46;5.47;;;3.63;;
6300;SDS011;3183;51.010;6.898;2023-03-16T01:10:13;11.27;;;4.60;;
6300;SDS011;3183;51.010;6.898;2023-03-16T01:12:41;10.40;;;4.60;;
6300;SDS011;3183;51.010;6.898;2023-03-16T01:15:11;7.20;;;3.40;;
6300;SDS011;3183;51.010;6.898;2023-03-16T01:17:38;5.00;;;3.00;;
6300;SDS011;3183;51.010;6.898;2023-03-16T01:20:06;6.43;;;3.63;;
6300;SDS011;3183;51.010;6.898;2023-03-16T01:22:36;6.70;;;3.80;;
6300;SDS011;3183;51.010;6.898;2023-03-16T01:25:03;4.30;;;3.00;;
6300;SDS011;3183;51.010;6.898;2023-03-16T01:27:30;10.90;;;4.27;;
6300;SDS011;3183;51.010;6.898;2023-03-16T01:29:58;7.47;;;3.57;;
6300;SDS011;3183;51.010;6.898;2023-03-16T01:32:27;12.30;;;3.40;;
6300;SDS011;3183;51.010;6.898;2023-03-16T01:34:54;8.83;;;4.10;;
6300;SDS011;3183;51.010;6.898;2023-03-16T01:37:21;5.10;;;3.57;;
6300;SDS011;3183;51.010;6.898;2023-03-16T01:39:49;5.10;;;3.17;;
6300;SDS011;3183;51.010;6.898;2023-03-16T01:42:16;5.70;;;3.40;;
6300;SDS011;3183;51.010;6.898;2023-03-16T01:44:51;7.73;;;3.50;;
6300;SDS011;3183;51.010;6.898;2023-03-16T01:47:20;13.67;;;3.73;;
6300;SDS011;3183;51.010;6.898;2023-03-16T01:49:49;5.60;;;3.10;;
6300;SDS011;3183;51.010;6.898;2023-03-16T01:52:20;7.23;;;3.50;;
6300;SDS011;3183;51.010;6.898;2023-03-16T01:54:48;12.50;;;3.73;;
6300;SDS011;3183;51.010;6.898;2023-03-16T01:57:17;4.80;;;3.33;;
6300;SDS011;3183;51.010;6.898;2023-03-16T01:59:47;8.07;;;3.70;;
6300;SDS011;3183;51.010;6.898;2023-03-16T02:02:15;7.70;;;3.63;;
6300;SDS011;3183;51.010;6.898;2023-03-16T02:04:44;5.63;;;3.40;;
6300;SDS011;3183;51.010;6.898;2023-03-16T02:07:13;7.30;;;3.50;;
6300;SDS011;3183;51.010;6.898;2023-03-16T02:09:43;8.17;;;3.07;;
6300;SDS011;3183;51.010;6.898;2023-03-16T02:12:11;5.80;;;3.27;;
6300;SDS011;3183;51.010;6.898;2023-03-16T02:14:41;11.30;;;3.30;;
6300;SDS011;3183;51.010;6.898;2023-03-16T02:17:09;7.17;;;3.30;;
6300;SDS011;3183;51.010;6.898;2023-03-16T02:19:38;7.70;;;3.30;;
6300;SDS011;3183;51.010;6.898;2023-03-16T02:22:06;7.63;;;3.13;;
6300;SDS011;3183;51.010;6.898;2023-03-16T02:24:36;7.83;;;2.97;;
6300;SDS011;3183;51.010;6.898;2023-03-16T02:27:04;5.83;;;3.83;;
6300;SDS011;3183;51.010;6.898;2023-03-16T02:32:27;5.43;;;2.83;;
6300;SDS011;3183;51.010;6.898;2023-03-16T02:34:55;4.40;;;3.13;;
6300;SDS011;3183;51.010;6.898;2023-03-16T02:37:22;5.07;;;2.77;;
6300;SDS011;3183;51.010;6.898;2023-03-16T02:39:49;5.67;;;3.13;;
6300;SDS011;3183;51.010;6.898;2023-03-16T02:42:18;4.87;;;2.90;;
6300;SDS011;3183;51.010;6.898;2023-03-16T02:44:47;8.17;;;3.30;;
6300;SDS011;3183;51.010;6.898;2023-03-16T02:47:19;4.70;;;2.90;;
6300;SDS011;3183;51.010;6.898;2023-03-16T02:49:50;8.70;;;3.23;;
6300;SDS011;3183;51.010;6.898;2023-03-16T02:52:17;5.30;;;3.30;;
6300;SDS011;3183;51.010;6.898;2023-03-16T02:54:44;5.07;;;2.50;;
6300;SDS011;3183;51.010;6.898;2023-03-16T02:57:12;5.70;;;2.30;;
6300;SDS011;3183;51.010;6.898;2023-03-16T02:59:39;6.20;;;3.07;;
6300;SDS011;3183;51.010;6.898;2023-03-16T03:02:06;11.73;;;3.10;;
6300;SDS011;3183;51.010;6.898;2023-03-16T03:04:33;5.73;;;2.77;;
6300;SDS011;3183;51.010;6.898;2023-03-16T03:07:02;7.63;;;3.20;;
6300;SDS011;3183;51.010;6.898;2023-03-16T03:09:29;5.43;;;2.93;;
6300;SDS011;3183;51.010;6.898;2023-03-16T03:11:57;7.53;;;3.93;;
6300;SDS011;3183;51.010;6.898;2023-03-16T03:14:25;6.10;;;3.07;;
6300;SDS011;3183;51.010;6.898;2023-03-16T03:16:53;6.67;;;3.20;;
6300;SDS011;3183;51.010;6.898;2023-03-16T03:19:21;4.87;;;3.10;;
6300;SDS011;3183;51.010;6.898;2023-03-16T03:21:48;4.03;;;2.77;;
6300;SDS011;3183;51.010;6.898;2023-03-16T03:24:16;8.70;;;3.57;;
6300;SDS011;3183;51.010;6.898;2023-03-16T03:26:44;9.13;;;2.73;;
6300;SDS011;3183;51.010;6.898;2023-03-16T03:29:11;5.00;;;2.97;;
6300;SDS011;3183;51.010;6.898;2023-03-16T03:31:38;9.90;;;3.17;;
6300;SDS011;3183;51.010;6.898;2023-03-16T03:34:05;5.90;;;2.80;;
6300;SDS011;3183;51.010;6.898;2023-03-16T03:36:32;7.70;;;3.60;;
6300;SDS011;3183;51.010;6.898;2023-03-16T03:38:59;10.67;;;3.60;;
6300;SDS011;3183;51.010;6.898;2023-03-16T03:41:31;5.00;;;2.63;;
6300;SDS011;3183;51.010;6.898;2023-03-16T03:43:58;5.63;;;2.80;;
6300;SDS011;3183;51.010;6.898;2023-03-16T03:46:25;6.20;;;2.30;;
6300;SDS011;3183;51.010;6.898;2023-03-16T03:48:53;4.47;;;2.63;;
6300;SDS011;3183;51.010;6.898;2023-03-16T03:51:22;5.23;;;2.70;;
6300;SDS011;3183;51.010;6.898;2023-03-16T03:53:49;5.27;;;2.50;;
6300;SDS011;3183;51.010;6.898;2023-03-16T03:56:16;12.93;;;3.33;;
6300;SDS011;3183;51.010;6.898;2023-03-16T03:58:45;5.13;;;2.40;;
6300;SDS011;3183;51.010;6.898;2023-03-16T04:01:12;5.90;;;3.03;;
6300;SDS011;3183;51.010;6.898;2023-03-16T04:03:39;7.80;;;3.10;;
6300;SDS011;3183;51.010;6.898;2023-03-16T04:06:06;3.47;;;2.23;;
6300;SDS011;3183;51.010;6.898;2023-03-16T04:08:33;6.23;;;2.87;;
6300;SDS011;3183;51.010;6.898;2023-03-16T04:11:01;7.73;;;3.10;;
6300;SDS011;3183;51.010;6.898;2023-03-16T04:13:28;5.33;;;3.03;;
6300;SDS011;3183;51.010;6.898;2023-03-16T04:15:56;4.70;;;3.20;;
6300;SDS011;3183;51.010;6.898;2023-03-16T04:18:24;8.07;;;3.00;;
6300;SDS011;3183;51.010;6.898;2023-03-16T04:20:51;3.27;;;2.23;;
6300;SDS011;3183;51.010;6.898;2023-03-16T04:23:18;11.13;;;3.83;;
6300;SDS011;3183;51.010;6.898;2023-03-16T04:25:45;7.47;;;3.37;;
6300;SDS011;3183;51.010;6.898;2023-03-16T04:28:12;13.97;;;3.87;;
6300;SDS011;3183;51.010;6.898;2023-03-16T04:30:41;5.47;;;2.70;;
6300;SDS011;3183;51.010;6.898;2023-03-16T04:33:10;8.90;;;3.20;;
6300;SDS011;3183;51.010;6.898;2023-03-16T04:35:38;8.40;;;3.50;;
6300;SDS011;3183;51.010;6.898;2023-03-16T04:38:06;4.43;;;2.97;;
6300;SDS011;3183;51.010;6.898;2023-03-16T04:40:34;6.70;;;2.70;;
6300;SDS011;3183;51.010;6.898;2023-03-16T04:43:01;5.27;;;2.67;;
6300;SDS011;3183;51.010;6.898;2023-03-16T04:45:28;9.73;;;3.50;;
6300;SDS011;3183;51.010;6.898;2023-03-16T04:47:56;9.83;;;3.20;;
6300;SDS011;3183;51.010;6.898;2023-03-16T04:50:24;5.50;;;3.47;;
6300;SDS011;3183;51.010;6.898;2023-03-16T04:52:51;4.40;;;2.80;;
6300;SDS011;3183;51.010;6.898;2023-03-16T04:55:19;7.33;;;3.47;;
6300;SDS011;3183;51.010;6.898;2023-03-16T04:57:46;5.53;;;3.20;;
6300;SDS011;3183;51.010;6.898;2023-03-16T05:00:14;4.40;;;2.80;;
6300;SDS011;3183;51.010;6.898;2023-03-16T05:02:43;6.13;;;3.03;;
6300;SDS011;3183;51.010;6.898;2023-03-16T05:05:10;10.87;;;3.60;;
6300;SDS011;3183;51.010;6.898;2023-03-16T05:07:39;5.20;;;3.47;;
6300;SDS011;3183;51.010;6.898;2023-03-16T05:10:07;13.97;;;3.77;;
6300;SDS011;3183;51.010;6.898;2023-03-16T05:12:34;9.10;;;3.77;;
6300;SDS011;3183;51.010;6.898;2023-03-16T05:15:01;4.10;;;3.13;;
6300;SDS011;3183;51.010;6.898;2023-03-16T05:17:29;8.37;;;3.10;;
6300;SDS011;3183;51.010;6.898;2023-03-16T05:19:56;9.13;;;4.10;;
6300;SDS011;3183;51.010;6.898;2023-03-16T05:22:23;5.47;;;3.60;;
6300;SDS011;3183;51.010;6.898;2023-03-16T05:24:52;5.07;;;2.90;;
6300;SDS011;3183;51.010;6.898;2023-03-16T05:27:19;6.33;;;3.40;;
6300;SDS011;3183;51.010;6.898;2023-03-16T05:29:46;5.20;;;3.60;;
6300;SDS011;3183;51.010;6.898;2023-03-16T05:32:13;7.40;;;3.73;;
6300;SDS011;3183;51.010;6.898;2023-03-16T05:34:41;5.93;;;3.80;;
6300;SDS011;3183;51.010;6.898;2023-03-16T05:37:09;6.30;;;3.70;;
6300;SDS011;3183;51.010;6.898;2023-03-16T05:39:36;9.60;;;4.30;;
6300;SDS011;3183;51.010;6.898;2023-03-16T05:42:05;12.50;;;3.80;;
6300;SDS011;3183;51.010;6.898;2023-03-16T05:44:32;7.67;;;3.83;;
6300;SDS011;3183;51.010;6.898;2023-03-16T05:46:59;8.00;;;4.13;;
6300;SDS011;3183;51.010;6.898;2023-03-16T05:49:26;8.57;;;4.77;;
6300;SDS011;3183;51.010;6.898;2023-03-16T05:51:53;9.67;;;3.70;;
6300;SDS011;3183;51.010;6.898;2023-03-16T05:54:21;9.80;;;4.50;;
6300;SDS011;3183;51.010;6.898;2023-03-16T05:56:49;6.57;;;4.40;;
6300;SDS011;3183;51.010;6.898;2023-03-16T05:59:17;11.27;;;4.67;;
6300;SDS011;3183;51.010;6.898;2023-03-16T06:01:44;11.47;;;4.20;;
6300;SDS011;3183;51.010;6.898;2023-03-16T06:04:13;7.30;;;4.73;;
6300;SDS011;3183;51.010;6.898;2023-03-16T06:06:40;6.63;;;3.63;;
6300;SDS011;3183;51.010;6.898;2023-03-16T06:09:07;8.93;;;4.13;;
6300;SDS011;3183;51.010;6.898;2023-03-16T06:11:35;5.67;;;4.10;;
6300;SDS011;3183;51.010;6.898;2023-03-16T06:14:02;9.57;;;4.47;;
6300;SDS011;3183;51.010;6.898;2023-03-16T06:16:30;12.57;;;5.47;;
6300;SDS011;3183;51.010;6.898;2023-03-16T06:18:57;9.00;;;4.70;;
6300;SDS011;3183;51.010;6.898;2023-03-16T06:21:25;6.90;;;3.90;;
6300;SDS011;3183;51.010;6.898;2023-03-16T06:23:52;12.00;;;4.73;;
6300;SDS011;3183;51.010;6.898;2023-03-16T06:26:20;8.07;;;4.63;;
6300;SDS011;3183;51.010;6.898;2023-03-16T06:28:47;7.90;;;4.97;;
6300;SDS011;3183;51.010;6.898;2023-03-16T06:31:14;10.77;;;4.67;;
6300;SDS011;3183;51.010;6.898;2023-03-16T06:33:43;13.60;;;5.47;;
6300;SDS011;3183;51.010;6.898;2023-03-16T06:36:10;7.77;;;5.37;;
6300;SDS011;3183;51.010;6.898;2023-03-16T06:38:37;8.10;;;4.33;;
6300;SDS011;3183;51.010;6.898;2023-03-16T06:41:04;9.70;;;4.97;;
6300;SDS011;3183;51.010;6.898;2023-03-16T06:43:31;9.10;;;4.50;;
6300;SDS011;3183;51.010;6.898;2023-03-16T06:45:58;7.10;;;4.30;;
6300;SDS011;3183;51.010;6.898;2023-03-16T06:48:27;12.53;;;4.63;;
6300;SDS011;3183;51.010;6.898;2023-03-16T06:50:55;6.90;;;4.30;;
6300;SDS011;3183;51.010;6.898;2023-03-16T06:53:22;6.53;;;3.83;;
6300;SDS011;3183;51.010;6.898;2023-03-16T06:55:50;8.83;;;4.70;;
6300;SDS011;3183;51.010;6.898;2023-03-16T06:58:17;13.93;;;5.13;;
6300;SDS011;3183;51.010;6.898;2023-03-16T07:00:45;7.17;;;4.20;;
6300;SDS011;3183;51.010;6.898;2023-03-16T07:03:12;6.60;;;4.27;;
6300;SDS011;3183;51.010;6.898;2023-03-16T07:05:39;5.67;;;3.60;;
6300;SDS011;3183;51.010;6.898;2023-03-16T07:08:07;7.00;;;4.30;;
6300;SDS011;3183;51.010;6.898;2023-03-16T07:10:36;7.57;;;4.60;;
6300;SDS011;3183;51.010;6.898;2023-03-16T07:13:03;9.33;;;4.90;;
6300;SDS011;3183;51.010;6.898;2023-03-16T07:15:30;7.47;;;4.03;;
6300;SDS011;3183;51.010;6.898;2023-03-16T07:17:57;11.63;;;4.50;;
6300;SDS011;3183;51.010;6.898;2023-03-16T07:20:24;7.43;;;4.33;;
6300;SDS011;3183;51.010;6.898;2023-03-16T07:22:53;7.73;;;4.10;;
6300;SDS011;3183;51.010;6.898;2023-03-16T07:25:22;7.30;;;4.37;;
6300;SDS011;3183;51.010;6.898;2023-03-16T07:27:49;7.10;;;3.77;;
6300;SDS011;3183;51.010;6.898;2023-03-16T07:30:16;7.03;;;4.63;;
6300;SDS011;3183;51.010;6.898;2023-03-16T07:32:43;7.57;;;4.70;;
6300;SDS011;3183;51.010;6.898;2023-03-16T07:35:11;8.80;;;4.43;;
6300;SDS011;3183;51.010;6.898;2023-03-16T07:37:38;9.90;;;5.00;;
6300;SDS011;3183;51.010;6.898;2023-03-16T07:40:06;9.50;;;4.17;;
6300;SDS011;3183;51.010;6.898;2023-03-16T07:42:35;11.13;;;4.80;;
6300;SDS011;3183;51.010;6.898;2023-03-16T07:45:03;8.73;;;4.23;;
6300;SDS011;3183;51.010;6.898;2023-03-16T07:47:30;11.07;;;4.50;;
6300;SDS011;3183;51.010;6.898;2023-03-16T07:49:58;8.53;;;4.53;;
6300;SDS011;3183;51.010;6.898;2023-03-16T07:52:25;8.33;;;3.90;;
6300;SDS011;3183;51.010;6.898;2023-03-16T07:54:52;8.00;;;4.27;;
6300;SDS011;3183;51.010;6.898;2023-03-16T07:57:19;11.70;;;4.40;;
6300;SDS011;3183;51.010;6.898;2023-03-16T07:59:48;11.70;;;4.40;;
6300;SDS011;3183;51.010;6.898;2023-03-16T08:02:16;5.20;;;3.70;;
6300;SDS011;3183;51.010;6.898;2023-03-16T08:04:43;6.37;;;4.57;;
6300;SDS011;3183;51.010;6.898;2023-03-16T08:07:11;7.33;;;4.33;;
6300;SDS011;3183;51.010;6.898;2023-03-16T08:09:39;8.57;;;4.20;;
6300;SDS011;3183;51.010;6.898;2023-03-16T08:12:07;7.80;;;3.73;;
6300;SDS011;3183;51.010;6.898;2023-03-16T08:14:35;6.47;;;4.13;;
6300;SDS011;3183;51.010;6.898;2023-03-16T08:17:04;6.33;;;3.60;;
6300;SDS011;3183;51.010;6.898;2023-03-16T08:19:32;5.40;;;4.00;;
6300;SDS011;3183;51.010;6.898;2023-03-16T08:21:59;11.97;;;4.50;;
6300;SDS011;3183;51.010;6.898;2023-03-16T08:24:27;11.00;;;4.23;;
6300;SDS011;3183;51.010;6.898;2023-03-16T08:26:55;6.50;;;3.77;;
6300;SDS011;3183;51.010;6.898;2023-03-16T08:29:22;7.33;;;3.67;;
6300;SDS011;3183;51.010;6.898;2023-03-16T08:31:50;10.27;;;4.10;;
6300;SDS011;3183;51.010;6.898;2023-03-16T08:34:20;8.93;;;4.00;;
6300;SDS011;3183;51.010;6.898;2023-03-16T08:36:47;6.33;;;4.20;;
6300;SDS011;3183;51.010;6.898;2023-03-16T08:39:14;7.33;;;4.07;;
6300;SDS011;3183;51.010;6.898;2023-03-16T08:41:41;4.87;;;3.53;;
6300;SDS011;3183;51.010;6.898;2023-03-16T08:44:09;9.47;;;3.80;;
6300;SDS011;3183;51.010;6.898;2023-03-16T08:46:37;5.83;;;3.77;;
6300;SDS011;3183;51.010;6.898;2023-03-16T08:49:04;8.50;;;4.23;;
6300;SDS011;3183;51.010;6.898;2023-03-16T08:51:33;6.20;;;4.00;;
6300;SDS011;3183;51.010;6.898;2023-03-16T08:54:01;6.63;;;4.00;;
6300;SDS011;3183;51.010;6.898;2023-03-16T08:56:28;5.13;;;3.87;;
6300;SDS011;3183;51.010;6.898;2023-03-16T08:58:56;7.57;;;3.90;;
6300;SDS011;3183;51.010;6.898;2023-03-16T09:01:23;6.20;;;3.80;;
6300;SDS011;3183;51.010;6.898;2023-03-16T09:03:51;8.23;;;3.80;;
6300;SDS011;3183;51.010;6.898;2023-03-16T09:06:18;9.30;;;4.30;;
6300;SDS011;3183;51.010;6.898;2023-03-16T09:08:47;5.83;;;4.10;;
6300;SDS011;3183;51.010;6.898;2023-03-16T09:11:16;5.97;;;4.13;;
6300;SDS011;3183;51.010;6.898;2023-03-16T09:13:43;8.43;;;4.43;;
6300;SDS011;3183;51.010;6.898;2023-03-16T09:16:11;9.60;;;3.83;;
6300;SDS011;3183;51.010;6.898;2023-03-16T09:18:39;7.60;;;4.07;;
6300;SDS011;3183;51.010;6.898;2023-03-16T09:21:07;4.43;;;3.50;;
6300;SDS011;3183;51.010;6.898;2023-03-16T09:23:37;5.43;;;3.43;;
6300;SDS011;3183;51.010;6.898;2023-03-16T09:26:07;5.70;;;4.20;;
6300;SDS011;3183;51.010;6.898;2023-03-16T09:28:34;10.20;;;4.20;;
6300;SDS011;3183;51.010;6.898;2023-03-16T09:31:02;8.60;;;4.10;;
6300;SDS011;3183;51.010;6.898;2023-03-16T09:33:30;16.00;;;4.30;;
6300;SDS011;3183;51.010;6.898;2023-03-16T09:35:57;7.33;;;3.93;;
6300;SDS011;3183;51.010;6.898;2023-03-16T09:38:25;7.03;;;4.47;;
6300;SDS011;3183;51.010;6.898;2023-03-16T09:40:55;7.80;;;4.17;;
6300;SDS011;3183;51.010;6.898;2023-03-16T09:43:31;8.13;;;4.30;;
6300;SDS011;3183;51.010;6.898;2023-03-16T09:46:02;6.50;;;4.33;;
6300;SDS011;3183;51.010;6.898;2023-03-16T09:48:31;4.63;;;3.50;;
6300;SDS011;3183;51.010;6.898;2023-03-16T09:51:00;5.13;;;3.60;;
6300;SDS011;3183;51.010;6.898;2023-03-16T09:53:30;5.60;;;3.90;;
6300;SDS011;3183;51.010;6.898;2023-03-16T09:56:00;7.47;;;3.93;;
6300;SDS011;3183;51.010;6.898;2023-03-16T09:58:30;6.70;;;4.30;;
6300;SDS011;3183;51.010;6.898;2023-03-16T10:00:59;6.20;;;4.07;;
6300;SDS011;3183;51.010;6.898;2023-03-16T10:03:34;5.63;;;3.57;;
6300;SDS011;3183;51.010;6.898;2023-03-16T10:06:03;6.53;;;3.97;;
6300;SDS011;3183;51.010;6.898;2023-03-16T10:08:32;5.50;;;3.67;;
6300;SDS011;3183;51.010;6.898;2023-03-16T10:11:05;10.10;;;3.80;;
6300;SDS011;3183;51.010;6.898;2023-03-16T10:13:40;6.63;;;3.40;;
6300;SDS011;3183;51.010;6.898;2023-03-16T10:16:11;10.20;;;4.60;;
6300;SDS011;3183;51.010;6.898;2023-03-16T10:18:40;7.57;;;3.80;;
6300;SDS011;3183;51.010;6.898;2023-03-16T10:21:12;5.33;;;3.70;;
6300;SDS011;3183;51.010;6.898;2023-03-16T10:23:40;6.67;;;3.10;;
6300;SDS011;3183;51.010;6.898;2023-03-16T10:26:12;5.17;;;3.13;;
6300;SDS011;3183;51.010;6.898;2023-03-16T10:28:41;5.37;;;3.40;;
6300;SDS011;3183;51.010;6.898;2023-03-16T10:31:09;4.80;;;3.47;;
6300;SDS011;3183;51.010;6.898;2023-03-16T10:33:38;5.27;;;3.03;;
6300;SDS011;3183;51.010;6.898;2023-03-16T10:36:11;4.17;;;3.10;;
6300;SDS011;3183;51.010;6.898;2023-03-16T10:38:40;5.93;;;3.27;;
6300;SDS011;3183;51.010;6.898;2023-03-16T10:41:18;5.23;;;3.10;;
6300;SDS011;3183;51.010;6.898;2023-03-16T10:43:48;8.40;;;3.57;;
6300;SDS011;3183;51.010;6.898;2023-03-16T10:46:16;5.93;;;3.27;;
6300;SDS011;3183;51.010;6.898;2023-03-16T10:48:50;6.43;;;3.73;;
6300;SDS011;3183;51.010;6.898;2023-03-16T10:51:18;3.83;;;2.93;;
6300;SDS011;3183;51.010;6.898;2023-03-16T10:53:47;6.17;;;3.80;;
6300;SDS011;3183;51.010;6.898;2023-03-16T10:56:19;5.57;;;3.60;;
6300;SDS011;3183;51.010;6.898;2023-03-16T10:58:48;4.23;;;3.20;;
6300;SDS011;3183;51.010;6.898;2023-03-16T11:01:16;5.17;;;3.43;;
6300;SDS011;3183;51.010;6.898;2023-03-16T11:03:46;13.20;;;3.53;;
6300;SDS011;3183;51.010;6.898;2023-03-16T11:06:16;6.73;;;3.80;;
6300;SDS011;3183;51.010;6.898;2023-03-16T11:08:45;5.70;;;3.37;;
6300;SDS011;3183;51.010;6.898;2023-03-16T11:11:13;6.20;;;3.50;;
6300;SDS011;3183;51.010;6.898;2023-03-16T11:13:42;5.70;;;3.80;;
6300;SDS011;3183;51.010;6.898;2023-03-16T11:16:16;4.23;;;3.37;;
6300;SDS011;3183;51.010;6.898;2023-03-16T11:18:47;8.27;;;3.27;;
6300;SDS011;3183;51.010;6.898;2023-03-16T11:21:20;5.53;;;3.10;;
6300;SDS011;3183;51.010;6.898;2023-03-16T11:23:50;6.73;;;3.10;;
6300;SDS011;3183;51.010;6.898;2023-03-16T11:26:20;4.70;;;2.80;;
6300;SDS011;3183;51.010;6.898;2023-03-16T11:28:49;6.93;;;3.40;;
6300;SDS011;3183;51.010;6.898;2023-03-16T11:31:23;6.13;;;3.10;;
6300;SDS011;3183;51.010;6.898;2023-03-16T11:33:54;13.40;;;3.30;;
6300;SDS011;3183;51.010;6.898;2023-03-16T11:36:34;8.40;;;3.37;;
6300;SDS011;3183;51.010;6.898;2023-03-16T11:39:06;7.43;;;3.10;;
6300;SDS011;3183;51.010;6.898;2023-03-16T11:41:39;3.10;;;2.30;;
6300;SDS011;3183;51.010;6.898;2023-03-16T11:44:11;5.63;;;3.07;;
6300;SDS011;3183;51.010;6.898;2023-03-16T11:46:44;4.60;;;2.77;;
6300;SDS011;3183;51.010;6.898;2023-03-16T11:49:19;4.90;;;2.87;;
6300;SDS011;3183;51.010;6.898;2023-03-16T11:51:51;8.70;;;3.63;;
6300;SDS011;3183;51.010;6.898;2023-03-16T11:54:34;7.33;;;2.80;;
6300;SDS011;3183;51.010;6.898;2023-03-16T11:57:07;3.47;;;2.70;;
6300;SDS011;3183;51.010;6.898;2023-03-16T11:59:52;6.77;;;2.27;;
6300;SDS011;3183;51.010;6.898;2023-03-16T12:02:32;5.70;;;2.97;;
6300;SDS011;3183;51.010;6.898;2023-03-16T12:05:08;15.03;;;3.20;;
6300;SDS011;3183;51.010;6.898;2023-03-16T12:07:39;5.63;;;3.00;;
6300;SDS011;3183;51.010;6.898;2023-03-16T12:10:21;4.83;;;2.50;;
6300;SDS011;3183;51.010;6.898;2023-03-16T12:13:00;3.13;;;2.47;;
6300;SDS011;3183;51.010;6.898;2023-03-16T12:15:33;10.20;;;2.70;;
6300;SDS011;3183;51.010;6.898;2023-03-16T12:18:07;5.03;;;2.70;;
6300;SDS011;3183;51.010;6.898;2023-03-16T12:20:39;4.97;;;2.90;;
6300;SDS011;3183;51.010;6.898;2023-03-16T12:23:08;3.67;;;2.73;;
6300;SDS011;3183;51.010;6.898;2023-03-16T12:25:37;9.23;;;2.87;;
6300;SDS011;3183;51.010;6.898;2023-03-16T12:28:10;4.27;;;2.50;;
6300;SDS011;3183;51.010;6.898;2023-03-16T12:30:42;3.03;;;2.67;;
6300;SDS011;3183;51.010;6.898;2023-03-16T12:33:13;6.57;;;3.20;;
6300;SDS011;3183;51.010;6.898;2023-03-16T12:35:45;5.40;;;2.77;;
6300;SDS011;3183;51.010;6.898;2023-03-16T12:38:21;5.40;;;2.70;;
6300;SDS011;3183;51.010;6.898;2023-03-16T12:40:52;11.67;;;2.87;;
6300;SDS011;3183;51.010;6.898;2023-03-16T12:43:27;6.60;;;3.00;;
6300;SDS011;3183;51.010;6.898;2023-03-16T12:45:58;2.17;;;2.00;;
6300;SDS011;3183;51.010;6.898;2023-03-16T12:48:30;4.53;;;2.60;;
6300;SDS011;3183;51.010;6.898;2023-03-16T12:50:58;6.53;;;2.50;;
6300;SDS011;3183;51.010;6.898;2023-03-16T12:53:27;3.50;;;2.00;;
6300;SDS011;3183;51.010;6.898;2023-03-16T12:55:55;4.93;;;2.70;;
6300;SDS011;3183;51.010;6.898;2023-03-16T12:58:23;3.60;;;2.33;;
6300;SDS011;3183;51.010;6.898;2023-03-16T13:00:55;6.17;;;2.13;;
6300;SDS011;3183;51.010;6.898;2023-03-16T13:03:23;3.43;;;2.40;;
6300;SDS011;3183;51.010;6.898;2023-03-16T13:05:53;4.00;;;2.67;;
6300;SDS011;3183;51.010;6.898;2023-03-16T13:08:21;3.00;;;2.13;;
6300;SDS011;3183;51.010;6.898;2023-03-16T13:11:00;3.13;;;2.50;;
6300;SDS011;3183;51.010;6.898;2023-03-16T13:13:27;3.20;;;2.67;;
6300;SDS011;3183;51.010;6.898;2023-03-16T13:16:02;6.57;;;2.47;;
6300;SDS011;3183;51.010;6.898;2023-03-16T13:18:34;3.43;;;2.37;;
6300;SDS011;3183;51.010;6.898;2023-03-16T13:21:13;6.60;;;2.20;;
6300;SDS011;3183;51.010;6.898;2023-03-16T13:23:45;5.57;;;2.20;;
6300;SDS011;3183;51.010;6.898;2023-03-16T13:26:14;5.50;;;2.57;;
6300;SDS011;3183;51.010;6.898;2023-03-16T13:28:42;4.80;;;2.60;;
6300;SDS011;3183;51.010;6.898;2023-03-16T13:31:18;4.10;;;2.37;;
6300;SDS011;3183;51.010;6.898;2023-03-16T13:33:47;3.30;;;2.30;;
6300;SDS011;3183;51.010;6.898;2023-03-16T13:36:16;5.20;;;2.10;;
6300;SDS011;3183;51.010;6.898;2023-03-16T13:38:53;3.60;;;1.70;;
6300;SDS011;3183;51.010;6.898;2023-03-16T13:41:21;3.87;;;1.77;;
6300;SDS011;3183;51.010;6.898;2023-03-16T13:43:48;1.53;;;1.40;;
6300;SDS011;3183;51.010;6.898;2023-03-16T13:46:16;2.00;;;1.73;;
6300;SDS011;3183;51.010;6.898;2023-03-16T13:48:45;3.30;;;1.77;;
6300;SDS011;3183;51.010;6.898;2023-03-16T13:51:13;2.20;;;1.67;;
6300;SDS011;3183;51.010;6.898;2023-03-16T13:53:43;3.40;;;1.60;;
6300;SDS011;3183;51.010;6.898;2023-03-16T13:56:12;5.80;;;1.60;;
6300;SDS011;3183;51.010;6.898;2023-03-16T13:58:39;2.17;;;1.60;;
6300;SDS011;3183;51.010;6.898;2023-03-16T14:01:10;1.90;;;1.53;;
6300;SDS011;3183;51.010;6.898;2023-03-16T14:03:41;4.80;;;2.07;;
6300;SDS011;3183;51.010;6.898;2023-03-16T14:06:15;4.43;;;2.03;;
6300;SDS011;3183;51.010;6.898;2023-03-16T14:08:45;4.00;;;1.70;;
6300;SDS011;3183;51.010;6.898;2023-03-16T14:11:14;3.13;;;1.80;;
6300;SDS011;3183;51.010;6.898;2023-03-16T14:13:41;5.67;;;2.20;;
6300;SDS011;3183;51.010;6.898;2023-03-16T14:16:10;5.37;;;2.23;;
6300;SDS011;3183;51.010;6.898;2023-03-16T14:18:38;2.50;;;1.77;;
6300;SDS011;3183;51.010;6.898;2023-03-16T14:21:07;4.77;;;1.40;;
6300;SDS011;3183;51.010;6.898;2023-03-16T14:23:35;6.20;;;1.70;;
6300;SDS011;3183;51.010;6.898;2023-03-16T14:26:08;4.03;;;1.90;;
6300;SDS011;3183;51.010;6.898;2023-03-16T14:28:37;4.50;;;2.20;;
6300;SDS011;3183;51.010;6.898;2023-03-16T14:31:05;8.57;;;2.00;;
6300;SDS011;3183;51.010;6.898;2023-03-16T14:33:33;9.10;;;2.00;;
6300;SDS011;3183;51.010;6.898;2023-03-16T14:36:06;4.70;;;2.13;;
6300;SDS011;3183;51.010;6.898;2023-03-16T14:38:34;3.43;;;1.80;;
6300;SDS011;3183;51.010;6.898;2023-03-16T14:41:02;4.00;;;1.60;;
6300;SDS011;3183;51.010;6.898;2023-03-16T14:43:34;3.43;;;1.60;;
6300;SDS011;3183;51.010;6.898;2023-03-16T14:46:02;4.00;;;2.40;;
6300;SDS011;3183;51.010;6.898;2023-03-16T14:48:31;6.10;;;1.80;;
6300;SDS011;3183;51.010;6.898;2023-03-16T14:50:59;2.57;;;1.93;;
6300;SDS011;3183;51.010;6.898;2023-03-16T14:53:28;7.53;;;2.03;;
6300;SDS011;3183;51.010;6.898;2023-03-16T14:55:56;9.07;;;1.83;;
6300;SDS011;3183;51.010;6.898;2023-03-16T14:58:23;5.30;;;2.10;;
6300;SDS011;3183;51.010;6.898;2023-03-16T15:00:52;4.40;;;2.17;;
6300;SDS011;3183;51.010;6.898;2023-03-16T15:03:21;2.80;;;1.70;;
6300;SDS011;3183;51.010;6.898;2023-03-16T15:05:50;3.60;;;2.20;;
6300;SDS011;3183;51.010;6.898;2023-03-16T15:08:19;5.20;;;2.13;;
6300;SDS011;3183;51.010;6.898;2023-03-16T15:10:47;2.53;;;1.97;;
6300;SDS011;3183;51.010;6.898;2023-03-16T15:13:16;2.40;;;1.70;;
6300;SDS011;3183;51.010;6.898;2023-03-16T15:16:00;3.77;;;1.77;;
6300;SDS011;3183;51.010;6.898;2023-03-16T15:18:28;5.97;;;2.33;;
6300;SDS011;3183;51.010;6.898;2023-03-16T15:20:55;3.30;;;1.50;;
6300;SDS011;3183;51.010;6.898;2023-03-16T15:23:23;3.30;;;1.90;;
6300;SDS011;3183;51.010;6.898;2023-03-16T15:25:50;5.23;;;2.10;;